Oasis of the Seas — C6XS7 — position and weather

sailwx.info

Track history (hours):
 
Tides and Currents Weather Stations Pressure Air Temp Water Temp Dewpoint Dewpoint Depression Visibility Wind Speed Wind Dir Waves Ship Positions

Oasis of the Seas

Last reported at 2015-Aug-04 06:00 UTC. Time now 2015-Aug-04 19:54 UTC.
Position N 19°18' W 075°06'.

Length 360 m; draft 9.3 m.

Type: Passenger vessel. MMSI: 311020600.

Wind from 080 at 15 knots

Waves 1.0 meters (3 feet), 99 second period

Barometer 1014.6 mb
Air temperature 29.4 ° C
Visibility: greater than 27.0 NM
Water temperature 32.3 ° C

Date/timePositionNaut miles runAvg speedWind from/ knotsBaromVisibWave heightAir tempDewpointWater temp
2015-Aug-04 06:00N 19°18' W 075°06'358 7.4 080 / 151014.627.0 1.029.4 32.3
2015-Aug-02 06:00N 23°48' W 079°18'10618.9 130 / 101014.610.8 0.530.0 32.0
2015-Aug-02 00:21N 25°29' W 079°54'1215.4
2015-Aug-01 23:34N 25°41' W 079°57'1514.5
2015-Aug-01 22:33N 25°55' W 080°01'1111.3
2015-Aug-01 21:33N 26°06' W 080°06'1 1.1
2015-Aug-01 20:31N 26°05' W 080°07'0 0.0
2015-Aug-01 19:31N 26°05' W 080°07'0 0.0
2015-Aug-01 18:28N 26°05' W 080°07'0 0.0
2015-Aug-01 17:28N 26°05' W 080°07'0 0.0
2015-Aug-01 16:28N 26°05' W 080°07'0 0.0
2015-Aug-01 15:28N 26°05' W 080°07'0 0.0
2015-Aug-01 14:28N 26°05' W 080°07'0 0.0
2015-Aug-01 13:31N 26°05' W 080°07'0 0.0
2015-Aug-01 12:28N 26°05' W 080°07'0 0.0
2015-Aug-01 11:31N 26°05' W 080°07'0 0.0
2015-Aug-01 10:31N 26°05' W 080°07'0 0.2
2015-Aug-01 09:33N 26°05' W 080°07'1111.1
2015-Aug-01 08:33N 26°06' W 079°55'1414.0
2015-Aug-01 07:33N 26°08' W 079°39'1615.0
2015-Aug-01 06:31N 26°10' W 079°22'42217.2
2015-Jul-31 06:00N 23°18' W 072°18'47919.9 110 / 191018.510.818.028.7 31.3
2015-Jul-30 06:00N 18°36' W 065°24'11715.7 070 / 171017.927.0 1.528.2 30.6
2015-Jul-29 22:33N 18°11' W 063°24'1918.8
2015-Jul-29 21:33N 18°00' W 063°07'4 0.4
2015-Jul-29 11:31N 18°00' W 063°03'8 7.9
2015-Jul-29 10:32N 18°00' W 063°11'9 9.2
2015-Jul-29 09:33N 18°00' W 063°21'10 9.2
2015-Jul-29 08:30N 18°00' W 063°31'9 9.4
2015-Jul-29 07:33N 18°01' W 063°40'13 8.3
2015-Jul-29 06:00N 18°00' W 063°54'29 9.8 050 / 201015.910.8 1.028.0 30.2
2015-Jul-29 03:04N 18°03' W 064°24'16 9.3
2015-Jul-29 01:22N 18°07' W 064°40'1310.0
2015-Jul-29 00:06N 18°12' W 064°52'139 7.7
2015-Jul-28 06:00N 19°30' W 066°54'72015.0 090 / 251016.610.8 1.028.3 28.4
2015-Jul-26 06:00N 25°54' W 077°54'8915.1 230 / 191013.610.8 29.2 31.5
2015-Jul-26 00:06N 26°10' W 079°31'913.9
2015-Jul-25 23:25N 26°09' W 079°42'1213.9
2015-Jul-25 22:33N 26°07' W 079°55'1111.0
2015-Jul-25 21:33N 26°05' W 080°07'0 0.2
2015-Jul-25 20:33N 26°05' W 080°07'0 0.0
2015-Jul-25 19:33N 26°05' W 080°07'0 0.0
2015-Jul-25 18:33N 26°05' W 080°07'0 0.0
2015-Jul-25 17:33N 26°05' W 080°07'0 0.0
2015-Jul-25 16:33N 26°05' W 080°07'0 0.0
2015-Jul-25 15:33N 26°05' W 080°07'0 0.0
2015-Jul-25 14:33N 26°05' W 080°07'0 0.0
2015-Jul-25 13:24N 26°05' W 080°07'0 0.0
2015-Jul-25 12:24N 26°05' W 080°07'0 0.0
2015-Jul-25 11:27N 26°05' W 080°07'0 0.0
2015-Jul-25 10:27N 26°05' W 080°07'0 0.1
2015-Jul-25 09:33N 26°05' W 080°07'9 8.8
2015-Jul-25 08:33N 26°00' W 079°59'1817.6
2015-Jul-25 07:33N 25°43' W 079°56'  
Track history (hours):
 
Tides and Currents Weather Stations Pressure Air Temp Water Temp Dewpoint Dewpoint Depression Visibility Wind Speed Wind Dir Waves Ship Positions

Oasis of the Seas

Last reported at 2015-Aug-04 06:00 UTC. Time now 2015-Aug-04 19:54 UTC.
Position N 19°18' W 075°06'.

Length 360 m; draft 9.3 m.

Type: Passenger vessel. MMSI: 311020600.

Wind from 080 at 15 knots

Waves 1.0 meters (3 feet), 99 second period

Barometer 1014.6 mb
Air temperature 29.4 ° C
Visibility: greater than 27.0 NM
Water temperature 32.3 ° C

Date/timePositionNaut miles runAvg speedWind from/ knotsBaromVisibWave heightAir tempDewpointWater temp
2015-Aug-04 06:00N 19°18' W 075°06'358 7.4 080 / 151014.627.0 1.029.4 32.3
2015-Aug-02 06:00N 23°48' W 079°18'10618.9 130 / 101014.610.8 0.530.0 32.0
2015-Aug-02 00:21N 25°29' W 079°54'1215.4
2015-Aug-01 23:34N 25°41' W 079°57'1514.5
2015-Aug-01 22:33N 25°55' W 080°01'1111.3
2015-Aug-01 21:33N 26°06' W 080°06'1 1.1
2015-Aug-01 20:31N 26°05' W 080°07'0 0.0
2015-Aug-01 19:31N 26°05' W 080°07'0 0.0
2015-Aug-01 18:28N 26°05' W 080°07'0 0.0
2015-Aug-01 17:28N 26°05' W 080°07'0 0.0
2015-Aug-01 16:28N 26°05' W 080°07'0 0.0
2015-Aug-01 15:28N 26°05' W 080°07'0 0.0
2015-Aug-01 14:28N 26°05' W 080°07'0 0.0
2015-Aug-01 13:31N 26°05' W 080°07'0 0.0
2015-Aug-01 12:28N 26°05' W 080°07'0 0.0
2015-Aug-01 11:31N 26°05' W 080°07'0 0.0
2015-Aug-01 10:31N 26°05' W 080°07'0 0.2
2015-Aug-01 09:33N 26°05' W 080°07'1111.1
2015-Aug-01 08:33N 26°06' W 079°55'1414.0
2015-Aug-01 07:33N 26°08' W 079°39'1615.0
2015-Aug-01 06:31N 26°10' W 079°22'42217.2
2015-Jul-31 06:00N 23°18' W 072°18'47919.9 110 / 191018.510.818.028.7 31.3
2015-Jul-30 06:00N 18°36' W 065°24'11715.7 070 / 171017.927.0 1.528.2 30.6
2015-Jul-29 22:33N 18°11' W 063°24'1918.8
2015-Jul-29 21:33N 18°00' W 063°07'4 0.4
2015-Jul-29 11:31N 18°00' W 063°03'8 7.9
2015-Jul-29 10:32N 18°00' W 063°11'9 9.2
2015-Jul-29 09:33N 18°00' W 063°21'10 9.2
2015-Jul-29 08:30N 18°00' W 063°31'9 9.4
2015-Jul-29 07:33N 18°01' W 063°40'13 8.3
2015-Jul-29 06:00N 18°00' W 063°54'29 9.8 050 / 201015.910.8 1.028.0 30.2
2015-Jul-29 03:04N 18°03' W 064°24'16 9.3
2015-Jul-29 01:22N 18°07' W 064°40'1310.0
2015-Jul-29 00:06N 18°12' W 064°52'139 7.7
2015-Jul-28 06:00N 19°30' W 066°54'72015.0 090 / 251016.610.8 1.028.3 28.4
2015-Jul-26 06:00N 25°54' W 077°54'8915.1 230 / 191013.610.8 29.2 31.5
2015-Jul-26 00:06N 26°10' W 079°31'913.9
2015-Jul-25 23:25N 26°09' W 079°42'1213.9
2015-Jul-25 22:33N 26°07' W 079°55'1111.0
2015-Jul-25 21:33N 26°05' W 080°07'0 0.2
2015-Jul-25 20:33N 26°05' W 080°07'0 0.0
2015-Jul-25 19:33N 26°05' W 080°07'0 0.0
2015-Jul-25 18:33N 26°05' W 080°07'0 0.0
2015-Jul-25 17:33N 26°05' W 080°07'0 0.0
2015-Jul-25 16:33N 26°05' W 080°07'0 0.0
2015-Jul-25 15:33N 26°05' W 080°07'0 0.0
2015-Jul-25 14:33N 26°05' W 080°07'0 0.0
2015-Jul-25 13:24N 26°05' W 080°07'0 0.0
2015-Jul-25 12:24N 26°05' W 080°07'0 0.0
2015-Jul-25 11:27N 26°05' W 080°07'0 0.0
2015-Jul-25 10:27N 26°05' W 080°07'0 0.1
2015-Jul-25 09:33N 26°05' W 080°07'9 8.8
2015-Jul-25 08:33N 26°00' W 079°59'1817.6
2015-Jul-25 07:33N 25°43' W 079°56'  

Dump ship's entire track history